Time;durP1;ratioP1;P1;durP2;ratioP2;P2;SDS_P1;SDS_P2;PMS_P1;PMS_P2;Temp;Humidity;BMP_temperature;BMP_pressure;BME280_temperature;BME280_humidity;BME280_pressure;Samples;Min_cycle;Max_cycle;Signal;HPM_P1;HPM_P2
2023/03/27 00:02:03;;;;;;;6.93;1.05;;;;;;;7.44;75.29;99532.34;10273177;28;20050;-68
2023/03/27 00:07:06;;;;;;;10.15;2.20;;;;;;;7.45;74.87;99543.91;10280644;28;20138;-68
2023/03/27 00:12:07;;;;;;;9.35;1.50;;;;;;;7.41;75.23;99554.09;10271831;28;20464;-67
2023/03/27 00:17:09;;;;;;;16.77;2.03;;;;;;;7.39;75.13;99568.66;10273901;28;20137;-67
2023/03/27 00:22:11;;;;;;;10.35;1.27;;;;;;;7.29;75.34;99571.56;10267845;28;20051;-67
2023/03/27 00:27:13;;;;;;;6.95;1.60;;;;;;;7.19;74.49;99576.25;10273274;28;20514;-67
2023/03/27 00:32:14;;;;;;;15.02;2.88;;;;;;;7.10;74.87;99591.50;10279779;28;20043;-67
2023/03/27 00:37:16;;;;;;;9.13;1.85;;;;;;;7.00;74.39;99604.22;10278378;28;20120;-68
2023/03/27 00:42:21;;;;;;;6.80;1.88;;;;;;;6.91;74.33;99606.91;10270789;28;20734;-67
2023/03/27 00:47:36;;;;;;;7.85;1.08;;;;;;;6.83;73.59;99622.13;10274046;28;20051;-68
2023/03/27 00:52:41;;;;;;;7.05;1.80;;;;;;;6.81;73.17;99642.81;10268928;28;20100;-66
2023/03/27 00:57:47;;;;;;;8.57;1.15;;;;;;;6.77;73.43;99654.84;10283698;28;20509;-68
2023/03/27 01:02:50;;;;;;;8.82;1.38;;;;;;;6.62;73.40;99663.53;10284412;28;20050;-67
2023/03/27 01:07:52;;;;;;;9.65;1.83;;;;;;;6.45;73.02;99693.91;10266914;28;20385;-68
2023/03/27 01:13:15;;;;;;;12.75;1.58;;;;;;;6.33;72.84;99709.41;10282653;28;20065;-67
2023/03/27 01:18:34;;;;;;;4.43;0.70;;;;;;;6.17;73.36;99720.06;10281389;28;20545;-67
2023/03/27 01:23:57;;;;;;;11.88;1.92;;;;;;;6.02;72.56;99730.50;10279974;28;20046;-66
2023/03/27 01:29:34;;;;;;;5.03;0.60;;;;;;;5.94;72.28;99739.28;10285359;28;20118;-68
2023/03/27 01:34:41;;;;;;;8.23;0.88;;;;;;;5.91;72.74;99755.63;10274105;28;20041;-67
2023/03/27 01:39:59;;;;;;;7.72;0.80;;;;;;;5.87;71.91;99767.63;10276042;28;20053;-67
2023/03/27 01:45:04;;;;;;;12.15;2.45;;;;;;;5.81;71.52;99774.41;10286311;28;20042;-67
2023/03/27 01:50:19;;;;;;;6.72;1.17;;;;;;;5.65;71.47;99787.69;10268581;28;20909;-68
2023/03/27 01:55:27;;;;;;;6.82;0.98;;;;;;;5.52;71.12;99785.41;10284537;28;20101;-68
2023/03/27 02:00:29;;;;;;;;;;;;;;;5.38;71.48;99780.66;10299990;28;20057;-68
2023/03/27 02:06:13;;;;;;;12.05;1.65;;;;;;;5.24;70.67;99806.88;10280538;28;19933;-67
2023/03/27 02:11:15;;;;;;;1.02;0.32;;;;;;;5.13;70.43;99821.31;10284066;28;20038;-68
2023/03/27 02:16:21;;;;;;;9.48;0.75;;;;;;;5.12;69.39;99830.28;10262511;28;20031;-67
2023/03/27 02:21:23;;;;;;;4.63;0.47;;;;;;;5.16;69.51;99836.13;10274620;28;20039;-68
2023/03/27 02:26:24;;;;;;;14.50;1.25;;;;;;;5.14;69.21;99830.13;10273068;28;20406;-68
2023/03/27 02:31:47;;;;;;;4.30;0.35;;;;;;;4.98;69.21;99838.81;10263395;28;20573;-68
2023/03/27 02:37:04;;;;;;;4.18;0.40;;;;;;;5.02;69.01;99858.00;10280089;28;20046;-68
2023/03/27 02:42:05;;;;;;;6.03;0.70;;;;;;;4.86;68.90;99862.16;10277699;28;20051;-68
2023/03/27 02:47:15;;;;;;;5.55;1.27;;;;;;;4.91;69.04;99877.69;10282055;28;20482;-68
2023/03/27 02:52:25;;;;;;;3.13;0.50;;;;;;;4.91;68.52;99896.31;10284167;28;20394;-67
2023/03/27 02:57:30;;;;;;;2.08;0.70;;;;;;;4.93;68.63;99910.31;10282141;28;20402;-68
2023/03/27 03:02:32;;;;;;;8.90;1.83;;;;;;;4.90;68.73;99922.13;10277616;28;20142;-67
2023/03/27 03:07:36;;;;;;;4.13;0.80;;;;;;;4.90;69.02;99937.28;10273458;28;20050;-67
2023/03/27 03:12:38;;;;;;;7.57;1.30;;;;;;;4.84;69.31;99936.03;10281957;28;20043;-67
2023/03/27 03:17:39;;;;;;;6.18;2.50;;;;;;;4.91;68.73;99950.41;10278969;28;20704;-67
2023/03/27 03:22:41;;;;;;;6.40;1.25;;;;;;;4.89;68.48;99951.56;10281371;28;20489;-67
2023/03/27 03:27:43;;;;;;;8.48;1.52;;;;;;;4.89;68.86;99968.38;10280616;28;20045;-67
2023/03/27 03:32:46;;;;;;;8.18;1.20;;;;;;;4.83;69.25;99987.59;10276960;28;20050;-68
2023/03/27 03:37:49;;;;;;;5.55;0.47;;;;;;;4.83;68.92;100000.91;10274401;28;20042;-67
2023/03/27 03:42:51;;;;;;;5.03;0.40;;;;;;;4.79;69.05;100009.38;10281146;28;20644;-68
2023/03/27 03:47:53;;;;;;;9.27;0.85;;;;;;;4.76;68.73;100018.50;10273853;28;20062;-68
2023/03/27 03:52:54;;;;;;;7.00;0.60;;;;;;;4.79;69.00;100034.16;10276794;28;20061;-68
2023/03/27 03:57:57;;;;;;;7.22;0.60;;;;;;;4.76;68.93;100037.97;10277235;28;20098;-68
2023/03/27 04:02:58;;;;;;;8.32;1.30;;;;;;;4.66;68.62;100053.13;10277681;28;20050;-68
2023/03/27 04:08:01;;;;;;;3.72;0.30;;;;;;;4.70;68.83;100061.66;10275035;28;20656;-68
2023/03/27 04:13:03;;;;;;;6.72;1.00;;;;;;;4.72;68.27;100078.31;10276113;28;20059;-68
2023/03/27 04:18:04;;;;;;;9.52;0.88;;;;;;;4.64;68.41;100080.88;10267798;28;20635;-68
2023/03/27 04:23:07;;;;;;;10.05;1.20;;;;;;;4.55;68.43;100099.38;10271406;28;20046;-68
2023/03/27 04:28:09;;;;;;;4.70;0.90;;;;;;;4.66;68.41;100103.72;10276183;28;20062;-68
2023/03/27 04:33:17;;;;;;;3.55;0.40;;;;;;;4.72;67.94;100116.44;10287915;28;20054;-68
2023/03/27 04:38:18;;;;;;;7.75;0.88;;;;;;;4.76;68.00;100139.13;10278737;28;20413;-68
2023/03/27 04:43:24;;;;;;;8.60;0.38;;;;;;;4.66;67.86;100142.78;10275181;28;20367;-68
2023/03/27 04:48:26;;;;;;;5.25;0.50;;;;;;;4.70;68.35;100150.38;10289521;28;20121;-68
2023/03/27 04:53:29;;;;;;;6.45;0.45;;;;;;;4.68;67.51;100151.47;10281824;28;20058;-68
2023/03/27 04:58:32;;;;;;;2.95;0.60;;;;;;;4.67;68.21;100168.44;10283527;28;20074;-69
2023/03/27 05:03:39;;;;;;;2.75;0.40;;;;;;;4.64;68.09;100195.34;10283071;28;20136;-68
2023/03/27 05:08:40;;;;;;;7.93;0.63;;;;;;;4.64;67.97;100203.31;10265213;28;20066;-68
2023/03/27 05:13:41;;;;;;;5.53;0.35;;;;;;;4.65;67.94;100202.34;10281785;28;20121;-67
2023/03/27 05:18:44;;;;;;;7.43;1.13;;;;;;;4.75;67.44;100209.34;10282680;28;20103;-67
2023/03/27 05:23:45;;;;;;;13.70;0.90;;;;;;;4.79;67.64;100217.06;10287838;28;20055;-64
2023/03/27 05:28:46;;;;;;;5.22;0.50;;;;;;;4.88;67.56;100222.38;10272880;28;20047;-63
2023/03/27 05:33:48;;;;;;;7.50;0.43;;;;;;;4.81;67.46;100239.06;10276415;28;20391;-62
2023/03/27 05:38:51;;;;;;;6.25;1.10;;;;;;;4.79;67.26;100262.31;10271177;28;20074;-63
2023/03/27 05:43:53;;;;;;;8.30;2.38;;;;;;;4.80;67.52;100261.31;10279157;28;20066;-64
2023/03/27 05:48:54;;;;;;;7.03;0.65;;;;;;;4.79;67.15;100270.31;10278572;28;20113;-62
2023/03/27 05:53:56;;;;;;;3.95;0.50;;;;;;;4.76;67.49;100280.25;10276702;28;20406;-63
2023/03/27 05:58:57;;;;;;;8.27;1.50;;;;;;;4.82;67.15;100286.00;10261269;28;20138;-62
2023/03/27 06:03:58;;;;;;;3.63;0.60;;;;;;;4.79;67.49;100299.59;10266189;28;20383;-62
2023/03/27 06:09:00;;;;;;;4.68;0.40;;;;;;;4.80;67.06;100303.94;10274095;28;20134;-62
2023/03/27 06:14:02;;;;;;;9.98;0.75;;;;;;;4.81;66.72;100306.47;10284262;28;20170;-62
2023/03/27 06:19:04;;;;;;;4.40;0.45;;;;;;;4.87;66.53;100321.88;10274349;28;20117;-65
2023/03/27 06:24:06;;;;;;;10.18;0.85;;;;;;;4.91;66.81;100333.94;10273435;28;20047;-64
2023/03/27 06:29:07;;;;;;;4.57;0.55;;;;;;;4.96;66.80;100355.69;10277170;28;20105;-65
2023/03/27 06:34:09;;;;;;;3.75;1.08;;;;;;;5.04;66.65;100359.47;10269260;28;20050;-65
2023/03/27 06:39:11;;;;;;;5.80;0.47;;;;;;;5.05;65.93;100375.28;10274471;28;20062;-66
2023/03/27 06:44:12;;;;;;;6.65;0.70;;;;;;;5.08;65.76;100385.69;10271088;28;20050;-62
2023/03/27 06:49:14;;;;;;;2.95;0.40;;;;;;;5.18;65.01;100399.00;10267517;28;20046;-64
2023/03/27 06:54:16;;;;;;;8.82;1.00;;;;;;;5.34;65.47;100395.78;10269874;28;20133;-63
2023/03/27 06:59:17;;;;;;;0.85;0.32;;;;;;;5.48;65.04;100399.84;10273652;28;20129;-62
2023/03/27 07:04:18;;;;;;;3.90;0.70;;;;;;;5.58;64.91;100416.66;10265635;28;20054;-64
2023/03/27 07:09:20;;;;;;;7.15;0.60;;;;;;;5.73;65.41;100425.91;10270544;28;20039;-63
2023/03/27 07:14:23;;;;;;;4.35;0.63;;;;;;;5.79;64.87;100431.69;10260202;28;20054;-65
2023/03/27 07:19:24;;;;;;;7.60;0.50;;;;;;;5.88;64.57;100434.28;10267253;28;20079;-65
2023/03/27 07:24:25;;;;;;;8.60;0.80;;;;;;;5.97;63.60;100451.31;10270282;28;20051;-64
2023/03/27 07:29:27;;;;;;;9.65;0.50;;;;;;;6.10;63.59;100456.34;10261917;28;20058;-62
2023/03/27 07:34:28;;;;;;;7.72;0.60;;;;;;;6.31;62.80;100473.00;10264413;28;20090;-63
2023/03/27 07:39:30;;;;;;;4.72;1.05;;;;;;;6.35;62.64;100473.56;10269484;28;20510;-66
2023/03/27 07:44:31;;;;;;;14.73;2.47;;;;;;;6.42;62.82;100488.00;10273799;28;20057;-65
2023/03/27 07:49:33;;;;;;;6.50;0.40;;;;;;;6.51;62.25;100492.44;10263198;28;20075;-66
2023/03/27 07:54:41;;;;;;;6.13;0.40;;;;;;;6.58;60.86;100495.41;10270832;28;20094;-66
2023/03/27 07:59:44;;;;;;;6.00;0.90;;;;;;;6.90;61.45;100499.47;10274868;28;20047;-66
2023/03/27 08:04:45;;;;;;;1.65;0.40;;;;;;;6.85;60.94;100499.94;10268882;28;20046;-66
2023/03/27 08:09:47;;;;;;;5.07;1.30;;;;;;;6.97;60.23;100510.41;10285073;28;20050;-67
2023/03/27 08:14:48;;;;;;;2.60;0.50;;;;;;;7.02;60.37;100516.97;10276596;28;20510;-66
2023/03/27 08:19:50;;;;;;;2.85;0.52;;;;;;;7.28;60.38;100517.09;10273707;28;20038;-66
2023/03/27 08:24:51;;;;;;;7.22;0.80;;;;;;;7.17;59.13;100522.69;10281098;28;20050;-67
2023/03/27 08:29:53;;;;;;;2.97;0.30;;;;;;;7.22;58.38;100531.06;10272288;28;20146;-66
2023/03/27 08:34:55;;;;;;;3.10;0.22;;;;;;;7.25;58.14;100543.34;10282255;28;20123;-65
2023/03/27 08:39:57;;;;;;;5.78;0.63;;;;;;;7.26;57.46;100556.53;10273948;28;21944;-66
2023/03/27 08:45:07;;;;;;;3.60;0.32;;;;;;;7.23;55.46;100561.34;10277471;28;20051;-67
2023/03/27 08:50:32;;;;;;;1.98;0.40;;;;;;;7.46;55.99;100559.91;10274762;28;21115;-65
2023/03/27 08:55:40;;;;;;;5.30;0.70;;;;;;;7.75;55.84;100554.38;10270501;28;20035;-66
2023/03/27 09:00:42;;;;;;;8.77;1.10;;;;;;;7.89;56.04;100555.66;10276184;28;20730;-67
2023/03/27 09:05:53;;;;;;;6.78;0.40;;;;;;;8.05;56.37;100556.81;10275610;28;20512;-65
2023/03/27 09:11:08;;;;;;;2.28;0.57;;;;;;;8.07;54.74;100561.00;10283386;28;20081;-65
2023/03/27 09:16:18;;;;;;;5.13;0.88;;;;;;;8.22;54.52;100565.84;10269280;28;20053;-66
2023/03/27 09:21:30;;;;;;;2.28;0.20;;;;;;;8.16;54.12;100579.84;10274081;28;20079;-66
2023/03/27 09:26:34;;;;;;;1.20;0.70;;;;;;;8.23;53.62;100567.50;10278116;28;20081;-66
2023/03/27 09:31:51;;;;;;;4.63;0.50;;;;;;;8.60;53.95;100567.28;10281647;28;20047;-65
2023/03/27 09:36:54;;;;;;;2.00;0.20;;;;;;;8.70;53.82;100564.50;10272173;28;20502;-65
2023/03/27 09:42:02;;;;;;;4.80;0.60;;;;;;;8.68;51.98;100559.31;10282146;28;20325;-66
2023/03/27 09:47:19;;;;;;;3.17;0.30;;;;;;;8.45;52.89;100568.84;10294349;28;20493;-64
2023/03/27 09:52:36;;;;;;;2.67;0.40;;;;;;;8.18;55.46;100589.41;10277755;28;20729;-63
2023/03/27 09:57:39;;;;;;;6.40;0.38;;;;;;;8.08;55.82;100586.81;10285628;28;20034;-63
2023/03/27 10:02:40;;;;;;;4.63;0.30;;;;;;;7.90;56.40;100597.50;10276805;28;20134;-59
2023/03/27 10:07:43;;;;;;;5.22;0.55;;;;;;;8.17;55.58;100587.69;10277047;28;20046;-59
2023/03/27 10:12:50;;;;;;;7.63;0.82;;;;;;;8.60;55.98;100574.50;10270657;28;20070;-59
2023/03/27 10:17:52;;;;;;;;;;;;;;;8.79;55.21;100576.09;10278315;28;20042;-61
2023/03/27 10:23:02;;;;;;;5.18;0.32;;;;;;;8.95;54.89;100583.44;10281235;28;19926;-59
2023/03/27 10:28:15;;;;;;;2.10;0.75;;;;;;;8.93;53.14;100589.78;10285062;28;20038;-60
2023/03/27 10:33:40;;;;;;;2.28;0.28;;;;;;;9.28;50.60;100590.63;10277133;28;20073;-61
2023/03/27 10:38:42;;;;;;;2.00;0.10;;;;;;;9.08;49.44;100589.16;10271432;28;20084;-60
2023/03/27 10:43:47;;;;;;;3.13;0.90;;;;;;;9.11;49.99;100599.59;10277679;28;20047;-60
2023/03/27 10:49:01;;;;;;;1.27;0.28;;;;;;;9.67;49.02;100602.63;10275629;28;20141;-59
2023/03/27 10:54:15;;;;;;;1.88;0.20;;;;;;;10.11;47.84;100597.84;10277654;28;20050;-59
2023/03/27 10:59:22;;;;;;;3.00;0.20;;;;;;;10.38;46.80;100600.41;10285410;28;20042;-59
2023/03/27 11:05:03;;;;;;;3.28;0.63;;;;;;;10.14;46.39;100602.03;10260233;28;20561;-60
2023/03/27 11:10:20;;;;;;;2.72;0.17;;;;;;;9.29;47.29;100623.63;10274594;28;20107;-62
2023/03/27 11:15:27;;;;;;;3.28;0.30;;;;;;;9.52;47.66;100630.09;10275253;28;20050;-61
2023/03/27 11:20:58;;;;;;;1.87;0.10;;;;;;;9.80;46.21;100631.72;10277511;28;20121;-64
2023/03/27 11:26:04;;;;;;;3.20;0.28;;;;;;;10.08;46.72;100635.78;10274096;28;20130;-61
2023/03/27 11:31:36;;;;;;;0.82;0.30;;;;;;;10.14;45.92;100658.44;10262108;28;20498;-64
2023/03/27 11:36:47;;;;;;;0.63;0.20;;;;;;;10.12;46.34;100669.34;10284213;28;20039;-64
2023/03/27 11:41:56;;;;;;;2.63;0.10;;;;;;;10.24;45.81;100671.72;10278158;28;20043;-62
2023/03/27 11:47:06;;;;;;;2.55;0.20;;;;;;;10.13;46.83;100700.59;10277385;28;20062;-63
2023/03/27 11:52:20;;;;;;;2.88;0.20;;;;;;;9.61;48.28;100692.69;10274458;28;20094;-67
2023/03/27 11:57:25;;;;;;;1.05;0.25;;;;;;;9.41;47.69;100678.69;10278288;28;20196;-63
2023/03/27 12:03:05;;;;;;;2.08;0.20;;;;;;;9.71;47.40;100704.13;10273869;28;20117;-64
2023/03/27 12:08:33;;;;;;;2.85;0.30;;;;;;;9.21;49.02;100704.91;10250056;28;20050;-65
2023/03/27 12:13:57;;;;;;;0.97;0.13;;;;;;;9.16;49.64;100696.47;10268822;28;20070;-64
2023/03/27 12:19:22;;;;;;;1.27;0.10;;;;;;;9.27;47.96;100687.34;10278876;28;20042;-65
2023/03/27 12:24:43;;;;;;;1.52;0.20;;;;;;;9.63;47.48;100684.50;10273966;28;20098;-66
2023/03/27 12:30:13;;;;;;;2.97;0.43;;;;;;;10.17;47.13;100678.75;10279769;28;20142;-65
2023/03/27 12:35:20;;;;;;;1.88;0.40;;;;;;;11.21;45.15;100658.41;10276726;28;20066;-63
2023/03/27 12:40:36;;;;;;;1.00;0.20;;;;;;;11.55;44.09;100652.72;10273757;28;20066;-64
2023/03/27 12:46:02;;;;;;;0.95;0.20;;;;;;;11.52;41.78;100656.63;10280746;28;20556;-63
2023/03/27 12:51:12;;;;;;;2.25;0.22;;;;;;;11.15;38.59;100649.19;10272271;28;20085;-63
2023/03/27 12:56:15;;;;;;;2.72;0.20;;;;;;;11.25;36.56;100655.19;10279081;28;20109;-63
2023/03/27 13:01:42;;;;;;;1.85;0.20;;;;;;;11.05;36.31;100653.91;10284003;28;20510;-63
2023/03/27 13:07:34;;;;;;;1.80;0.20;;;;;;;11.14;36.68;100657.41;10276894;28;20055;-62
2023/03/27 13:12:52;;;;;;;1.50;0.20;;;;;;;11.57;36.35;100656.13;10266258;28;20046;-62
2023/03/27 13:18:41;;;;;;;1.48;0.10;;;;;;;11.97;36.28;100664.19;10285987;28;20430;-65
2023/03/27 13:24:04;;;;;;;0.95;0.22;;;;;;;11.76;36.38;100670.16;10286626;28;20102;-63
2023/03/27 13:29:21;;;;;;;1.23;0.10;;;;;;;11.30;37.02;100668.97;10284495;28;20079;-64
2023/03/27 13:34:25;;;;;;;1.50;0.60;;;;;;;11.08;38.49;100677.81;10286323;28;20521;-67
2023/03/27 13:39:58;;;;;;;2.28;0.20;;;;;;;10.59;40.44;100688.59;10283495;28;20049;-67
2023/03/27 13:45:20;;;;;;;1.75;0.20;;;;;;;10.65;40.87;100698.69;10283413;28;20423;-67
2023/03/27 13:50:59;;;;;;;2.22;0.30;;;;;;;10.04;44.15;100736.50;10282071;28;20050;-67
2023/03/27 13:56:33;;;;;;;0.68;0.20;;;;;;;9.59;45.63;100734.13;10285326;28;20070;-66
2023/03/27 14:01:58;;;;;;;4.00;0.50;;;;;;;9.65;45.83;100726.25;10278028;28;20058;-66
2023/03/27 14:07:51;;;;;;;1.25;0.35;;;;;;;9.16;45.12;100730.50;10284391;28;20990;-66
2023/03/27 14:13:15;;;;;;;1.85;0.20;;;;;;;9.51;44.34;100721.50;10278743;28;20605;-66
2023/03/27 14:19:02;;;;;;;0.57;0.20;;;;;;;10.09;42.87;100720.75;10280686;28;20115;-66
2023/03/27 14:24:37;;;;;;;2.08;0.70;;;;;;;11.00;41.85;100705.56;10112827;29;20125;-66
2023/03/27 14:29:39;;;;;;;0.52;0.17;;;;;;;11.15;40.79;100705.69;10257156;28;20129;-67
2023/03/27 14:34:52;;;;;;;2.83;0.30;;;;;;;11.26;39.62;100702.63;10281917;28;20150;-67
2023/03/27 14:39:57;;;;;;;1.20;0.20;;;;;;;11.52;39.70;100705.09;10274187;28;20073;-67
2023/03/27 14:45:21;;;;;;;0.73;0.20;;;;;;;11.42;40.33;100700.91;10274939;28;20057;-67
2023/03/27 14:50:25;;;;;;;1.30;0.30;;;;;;;11.40;40.69;100725.31;10274504;28;20121;-66
2023/03/27 14:55:35;;;;;;;1.13;0.30;;;;;;;10.72;41.56;100731.94;10279218;28;20051;-66
2023/03/27 15:00:39;;;;;;;3.17;0.22;;;;;;;10.26;41.78;100745.78;10271432;28;20138;-67
2023/03/27 15:06:03;;;;;;;1.73;0.30;;;;;;;9.66;42.20;100767.38;10269390;28;20043;-67
2023/03/27 15:11:14;;;;;;;0.20;0.15;;;;;;;8.93;45.01;100768.56;10273018;28;20052;-67
2023/03/27 15:16:23;;;;;;;1.33;0.47;;;;;;;8.69;45.89;100771.88;10280317;28;20453;-67
2023/03/27 15:21:37;;;;;;;2.47;0.68;;;;;;;8.44;47.53;100778.81;10272621;28;20532;-67
2023/03/27 15:26:39;;;;;;;0.52;0.10;;;;;;;8.34;48.52;100776.19;10276047;28;20208;-67
2023/03/27 15:31:44;;;;;;;2.30;0.40;;;;;;;8.32;49.48;100770.97;10276630;28;20055;-67
2023/03/27 15:36:53;;;;;;;1.35;0.40;;;;;;;8.29;50.06;100765.06;10272895;28;20054;-67
2023/03/27 15:42:05;;;;;;;0.63;0.20;;;;;;;8.46;48.63;100769.63;10270726;28;20118;-67
2023/03/27 15:47:25;;;;;;;1.77;0.10;;;;;;;8.95;46.81;100766.56;10272686;28;20458;-67
2023/03/27 15:52:32;;;;;;;2.05;0.15;;;;;;;9.31;45.38;100748.56;10259786;28;20039;-67
2023/03/27 15:57:33;;;;;;;1.48;0.10;;;;;;;9.72;44.59;100764.06;10276486;28;20066;-67
2023/03/27 16:02:35;;;;;;;0.28;0.28;;;;;;;10.07;43.54;100770.22;10267145;28;20054;-68
2023/03/27 16:07:42;;;;;;;0.98;0.15;;;;;;;10.14;43.42;100779.34;10269877;28;20129;-67
2023/03/27 16:12:55;;;;;;;0.95;0.17;;;;;;;10.00;43.63;100798.75;10272659;28;20552;-67
2023/03/27 16:18:00;;;;;;;2.10;0.10;;;;;;;10.12;44.22;100792.09;10276099;28;20051;-65
2023/03/27 16:23:03;;;;;;;0.30;0.00;;;;;;;10.19;42.49;100794.94;10275598;28;20548;-66
2023/03/27 16:28:07;;;;;;;1.67;0.10;;;;;;;10.37;40.95;100793.06;10284169;28;20054;-61
2023/03/27 16:33:17;;;;;;;0.10;0.00;;;;;;;10.51;40.59;100792.41;10282996;28;20112;-61
2023/03/27 16:38:19;;;;;;;0.65;0.20;;;;;;;10.38;40.67;100810.84;10291996;28;20053;-64
2023/03/27 16:43:21;;;;;;;2.60;0.10;;;;;;;10.24;41.10;100811.44;10277130;28;20107;-65
2023/03/27 16:48:22;;;;;;;1.50;0.10;;;;;;;10.23;40.89;100815.97;10282159;28;20073;-64
2023/03/27 16:53:23;;;;;;;2.45;0.40;;;;;;;9.84;40.74;100834.44;10285159;28;20050;-64
2023/03/27 16:58:25;;;;;;;0.75;0.20;;;;;;;9.62;41.52;100847.38;10282320;28;20069;-66
2023/03/27 17:03:27;;;;;;;2.35;0.20;;;;;;;9.50;41.78;100846.78;10281428;28;20055;-65
2023/03/27 17:08:31;;;;;;;2.60;0.10;;;;;;;9.25;42.25;100859.16;10280607;28;20043;-66
2023/03/27 17:13:32;;;;;;;0.25;0.13;;;;;;;9.00;43.44;100884.91;10284070;28;20133;-65
2023/03/27 17:18:35;;;;;;;0.30;0.10;;;;;;;8.85;43.77;100884.63;10281590;28;20067;-65
2023/03/27 17:23:36;;;;;;;2.90;0.57;;;;;;;8.81;44.59;100891.28;10282728;28;20098;-64
2023/03/27 17:28:38;;;;;;;0.50;0.20;;;;;;;8.38;46.23;100889.22;10273745;28;20051;-63
2023/03/27 17:33:40;;;;;;;3.33;0.30;;;;;;;8.07;47.59;100906.38;10281628;28;20110;-61
2023/03/27 17:38:42;;;;;;;1.60;0.30;;;;;;;7.80;48.34;100914.34;10283564;28;20513;-63
2023/03/27 17:43:44;;;;;;;0.85;0.20;;;;;;;7.70;49.37;100923.25;10274856;28;20069;-64
2023/03/27 17:48:46;;;;;;;2.55;0.40;;;;;;;7.63;49.14;100923.97;10261841;28;20465;-67
2023/03/27 17:53:47;;;;;;;1.00;0.30;;;;;;;7.67;49.29;100936.06;10273022;28;21836;-65
2023/03/27 17:58:49;;;;;;;1.38;0.20;;;;;;;7.39;49.81;100946.66;10263449;28;20042;-63
2023/03/27 18:03:50;;;;;;;3.03;0.40;;;;;;;7.42;50.00;100953.53;10285610;28;20368;-65
2023/03/27 18:08:52;;;;;;;4.25;0.57;;;;;;;7.30;50.43;100960.84;10276482;28;20046;-67
2023/03/27 18:13:53;;;;;;;2.15;0.95;;;;;;;7.07;50.46;100965.59;10279222;28;20513;-68
2023/03/27 18:18:56;;;;;;;1.50;0.30;;;;;;;6.99;50.49;100968.13;10278407;28;20051;-67
2023/03/27 18:23:58;;;;;;;1.80;0.40;;;;;;;6.99;50.56;100963.63;10280605;28;20047;-66
2023/03/27 18:29:00;;;;;;;4.50;0.40;;;;;;;6.93;50.37;100974.84;10279782;28;20050;-66
2023/03/27 18:34:01;;;;;;;3.30;0.40;;;;;;;6.84;50.89;100989.06;10273356;28;20074;-67
2023/03/27 18:39:05;;;;;;;2.13;0.75;;;;;;;6.72;51.91;100993.66;10280646;28;20043;-69
2023/03/27 18:44:06;;;;;;;7.28;0.57;;;;;;;6.63;51.41;101000.63;10271101;28;20117;-71
2023/03/27 18:49:08;;;;;;;1.50;0.28;;;;;;;6.59;51.98;101001.88;10279039;28;20062;-70
2023/03/27 18:54:25;;;;;;;3.15;0.50;;;;;;;6.55;51.88;101003.97;10281815;28;20052;-70
2023/03/27 18:59:26;;;;;;;5.60;1.48;;;;;;;6.62;51.78;101009.63;10282526;28;20498;-71
2023/03/27 19:04:27;;;;;;;1.35;0.60;;;;;;;6.62;52.31;101019.50;10277291;28;20112;-71
2023/03/27 19:09:29;;;;;;;2.85;0.73;;;;;;;6.60;53.05;101024.94;10277025;28;20501;-71
2023/03/27 19:14:42;;;;;;;3.88;0.70;;;;;;;6.64;52.62;101026.38;10283944;28;20693;-70
2023/03/27 19:19:43;;;;;;;1.95;0.70;;;;;;;6.72;53.05;101018.53;10272679;28;20567;-70
2023/03/27 19:24:47;;;;;;;1.45;1.35;;;;;;;6.65;53.77;101025.38;10271146;28;20038;-71
2023/03/27 19:29:48;;;;;;;3.53;1.00;;;;;;;6.54;54.17;101023.66;10272369;28;20039;-71
2023/03/27 19:34:50;;;;;;;1.45;0.80;;;;;;;6.38;55.07;101033.13;10288730;28;20047;-71
2023/03/27 19:39:51;;;;;;;5.22;1.10;;;;;;;6.43;54.71;101038.91;10274399;28;20110;-70
2023/03/27 19:44:53;;;;;;;3.00;1.40;;;;;;;6.34;55.43;101037.91;10282364;28;20083;-68
2023/03/27 19:49:55;;;;;;;2.83;1.00;;;;;;;6.26;55.63;101040.34;10282842;28;20051;-71
2023/03/27 19:54:56;;;;;;;3.25;1.00;;;;;;;6.24;55.63;101051.19;10275893;28;20047;-71
2023/03/27 19:59:58;;;;;;;4.95;1.25;;;;;;;6.32;55.39;101059.38;10275188;28;20054;-70
2023/03/27 20:04:59;;;;;;;4.38;2.00;;;;;;;6.33;55.28;101061.06;10295542;28;20048;-71
2023/03/27 20:10:01;;;;;;;3.80;0.80;;;;;;;6.31;55.50;101078.19;10291937;28;20043;-71
2023/03/27 20:15:02;;;;;;;1.40;0.73;;;;;;;6.37;56.14;101075.00;10287898;28;20105;-72
2023/03/27 20:20:13;;;;;;;3.17;1.13;;;;;;;6.55;55.00;101069.91;10283936;28;20070;-71
2023/03/27 20:25:14;;;;;;;2.17;0.70;;;;;;;6.48;55.10;101069.59;10288335;28;20072;-71
2023/03/27 20:30:16;;;;;;;1.70;0.80;;;;;;;6.38;56.03;101083.84;10283297;28;20050;-70
2023/03/27 20:35:17;;;;;;;2.40;0.88;;;;;;;6.35;56.02;101068.94;10284258;28;20081;-70
2023/03/27 20:40:25;;;;;;;1.40;0.80;;;;;;;6.37;55.98;101082.16;10297022;28;20058;-70
2023/03/27 20:45:29;;;;;;;3.45;1.30;;;;;;;6.41;55.67;101081.78;10284161;28;20094;-69
2023/03/27 20:50:33;;;;;;;3.83;0.90;;;;;;;6.34;55.80;101088.63;10283056;28;20051;-69
2023/03/27 20:55:35;;;;;;;3.83;0.80;;;;;;;6.28;55.72;101086.44;10280559;28;20051;-70
2023/03/27 21:00:51;;;;;;;4.20;1.25;;;;;;;6.08;55.89;101088.13;10287479;28;20070;-70
2023/03/27 21:05:53;;;;;;;4.93;0.95;;;;;;;6.14;55.77;101085.81;10278302;28;20415;-70
2023/03/27 21:10:54;;;;;;;3.85;1.70;;;;;;;6.20;55.27;101084.47;10286307;28;20048;-70
2023/03/27 21:15:56;;;;;;;2.50;0.85;;;;;;;6.01;55.79;101086.97;10286839;28;20113;-70
2023/03/27 21:20:58;;;;;;;4.60;1.15;;;;;;;5.89;55.95;101092.31;10286923;28;20474;-68
2023/03/27 21:26:00;;;;;;;2.47;0.88;;;;;;;5.81;56.21;101107.28;10293811;28;20055;-69
2023/03/27 21:31:08;;;;;;;0.85;0.40;;;;;;;5.75;55.99;101109.47;10292639;28;20556;-68
2023/03/27 21:36:11;;;;;;;1.50;0.75;;;;;;;5.80;56.12;101100.22;10285759;28;20043;-71
2023/03/27 21:41:14;;;;;;;2.50;0.40;;;;;;;5.79;55.77;101103.88;10286009;28;20054;-70
2023/03/27 21:46:16;;;;;;;4.32;0.60;;;;;;;5.77;56.01;101112.00;10280492;28;20043;-70
2023/03/27 21:51:18;;;;;;;3.70;0.95;;;;;;;5.78;56.03;101110.19;10284646;28;20042;-71
2023/03/27 21:56:19;;;;;;;6.43;1.00;;;;;;;5.81;55.47;101121.44;10286163;28;20457;-69
2023/03/27 22:01:20;;;;;;;6.82;1.30;;;;;;;5.73;55.83;101114.06;10292123;28;20039;-69
2023/03/27 22:06:22;;;;;;;2.80;0.80;;;;;;;5.74;55.95;101114.91;10288194;28;20582;-70
2023/03/27 22:11:23;;;;;;;4.60;1.95;;;;;;;5.71;55.80;101113.34;10271885;28;20398;-70
2023/03/27 22:16:25;;;;;;;7.47;0.88;;;;;;;5.67;55.88;101109.25;10283530;28;20122;-71
2023/03/27 22:21:28;;;;;;;8.00;2.38;;;;;;;5.62;55.87;101127.44;10288720;28;20083;-69
2023/03/27 22:26:33;;;;;;;5.40;0.80;;;;;;;5.59;56.37;101138.38;10286631;28;20051;-70
2023/03/27 22:31:35;;;;;;;7.88;0.90;;;;;;;5.52;56.78;101137.16;10288629;28;20047;-70
2023/03/27 22:36:36;;;;;;;3.13;0.90;;;;;;;5.49;56.72;101146.25;10297406;28;20043;-70
2023/03/27 22:41:38;;;;;;;5.47;1.42;;;;;;;5.42;57.16;101157.53;10291420;28;20102;-70
2023/03/27 22:46:39;;;;;;;3.45;0.93;;;;;;;5.37;57.62;101163.22;10290630;28;20085;-70
2023/03/27 22:51:40;;;;;;;2.90;1.45;;;;;;;5.32;57.46;101163.59;10285175;28;20497;-70
2023/03/27 22:56:42;;;;;;;2.70;1.27;;;;;;;5.27;57.70;101181.78;10289777;28;20070;-71
2023/03/27 23:01:43;;;;;;;2.30;1.13;;;;;;;5.21;58.40;101178.72;10286105;28;20631;-71
2023/03/27 23:06:45;;;;;;;3.80;1.70;;;;;;;5.19;58.39;101184.19;10283433;28;20039;-70
2023/03/27 23:11:46;;;;;;;4.20;1.17;;;;;;;5.16;58.51;101181.78;10286114;28;20101;-71
2023/03/27 23:16:48;;;;;;;6.63;1.52;;;;;;;5.22;57.95;101183.94;10277661;28;20085;-71
2023/03/27 23:21:49;;;;;;;3.90;0.68;;;;;;;5.13;58.53;101187.31;10283470;28;20509;-70
2023/03/27 23:26:51;;;;;;;6.35;1.55;;;;;;;5.11;58.27;101197.25;10281970;28;20046;-71
2023/03/27 23:31:52;;;;;;;5.95;0.70;;;;;;;5.06;58.44;101205.63;10274977;28;20054;-71
2023/03/27 23:36:54;;;;;;;7.90;1.40;;;;;;;5.05;58.39;101209.25;10285205;28;20126;-71
2023/03/27 23:41:55;;;;;;;4.18;0.85;;;;;;;5.04;58.39;101217.38;10285619;28;20465;-71
2023/03/27 23:46:56;;;;;;;2.90;0.90;;;;;;;5.06;58.34;101210.94;10287634;28;20054;-72